Time;durP1;ratioP1;P1;durP2;ratioP2;P2;SDS_P1;SDS_P2;PMS_P1;PMS_P2;Temp;Humidity;BMP_temperature;BMP_pressure;BME280_temperature;BME280_humidity;BME280_pressure;Samples;Min_cycle;Max_cycle;Signal;HPM_P1;HPM_P2
2023/08/21 00:04:06;;;;;;;;;;;24.20;61.80;;;;;;10156746;28;93464;-68
2023/08/21 00:09:09;;;;;;;;;;;24.20;61.70;;;;;;10152628;28;93010;-67
2023/08/21 00:14:11;;;;;;;;;;;24.20;61.70;;;;;;10119732;28;95891;-67
2023/08/21 00:19:13;;;;;;;;;;;24.10;61.60;;;;;;10155379;28;93442;-67
2023/08/21 00:24:14;;;;;;;;;;;24.10;61.60;;;;;;10154946;28;94575;-67
2023/08/21 00:29:16;;;;;;;;;;;24.10;61.50;;;;;;10166510;28;94016;-67
2023/08/21 00:34:18;;;;;;;;;;;24.10;61.40;;;;;;10156238;28;94376;-68
2023/08/21 00:39:20;;;;;;;;;;;24.10;61.40;;;;;;10172119;28;93357;-67
2023/08/21 00:44:21;;;;;;;;;;;24.10;61.50;;;;;;10158779;28;93423;-67
2023/08/21 00:49:25;;;;;;;;;;;24.10;61.40;;;;;;10174762;28;92879;-68
2023/08/21 00:54:28;;;;;;;;;;;24.10;61.30;;;;;;10180254;28;94711;-67
2023/08/21 00:59:30;;;;;;;;;;;24.00;61.20;;;;;;10155352;28;93781;-66
2023/08/21 01:04:32;;;;;;;;;;;24.00;61.20;;;;;;10154080;28;96849;-68
2023/08/21 01:09:39;;;;;;;;;;;24.00;61.00;;;;;;10153598;28;94901;-66
2023/08/21 01:14:55;;;;;;;;;;;24.00;61.10;;;;;;10137832;28;92697;-67
2023/08/21 01:19:58;;;;;;;;;;;24.00;61.10;;;;;;10155882;28;95163;-66
2023/08/21 01:25:00;;;;;;;;;;;24.00;60.90;;;;;;10151280;28;93107;-67
2023/08/21 01:30:03;;;;;;;;;;;24.00;61.00;;;;;;10153456;28;94455;-66
2023/08/21 01:35:05;;;;;;;;;;;24.00;60.90;;;;;;10153488;28;94019;-66
2023/08/21 01:40:07;;;;;;;;;;;24.00;60.90;;;;;;10155176;28;92670;-67
2023/08/21 01:45:10;;;;;;;;;;;23.90;60.90;;;;;;10159384;28;96650;-68
2023/08/21 01:50:11;;;;;;;;;;;23.90;61.00;;;;;;10163848;28;94584;-68
2023/08/21 01:55:13;;;;;;;;;;;23.90;61.00;;;;;;10175418;28;96329;-67
2023/08/21 02:00:15;;;;;;;;;;;23.90;60.90;;;;;;10160515;28;93473;-68
2023/08/21 02:05:16;;;;;;;;;;;23.90;60.90;;;;;;10177867;28;94439;-67
2023/08/21 02:10:18;;;;;;;;;;;23.90;60.80;;;;;;10164985;28;93017;-67
2023/08/21 02:15:21;;;;;;;;;;;23.80;60.80;;;;;;10160908;28;94388;-67
2023/08/21 02:20:24;;;;;;;;;;;23.80;60.80;;;;;;10158375;28;93565;-66
2023/08/21 02:25:26;;;;;;;;;;;23.80;60.80;;;;;;10157809;28;94659;-67
2023/08/21 02:30:28;;;;;;;;;;;23.90;60.80;;;;;;10161937;28;93741;-68
2023/08/21 02:35:30;;;;;;;;;;;23.80;60.80;;;;;;10159837;28;93568;-67
2023/08/21 02:40:32;;;;;;;;;;;23.80;60.80;;;;;;10156482;28;93910;-68
2023/08/21 02:45:33;;;;;;;;;;;23.80;60.70;;;;;;10173920;28;96093;-67
2023/08/21 02:50:35;;;;;;;;;;;23.90;60.80;;;;;;10155422;28;93085;-67
2023/08/21 02:55:39;;;;;;;;;;;23.90;60.70;;;;;;10165559;28;93453;-67
2023/08/21 03:00:41;;;;;;;;;;;23.80;60.70;;;;;;10169826;28;94481;-68
2023/08/21 03:05:45;;;;;;;;;;;23.80;60.60;;;;;;10169445;28;94750;-67
2023/08/21 03:10:48;;;;;;;;;;;23.80;60.60;;;;;;10147162;28;94041;-67
2023/08/21 03:15:51;;;;;;;;;;;23.80;60.60;;;;;;10148302;28;93474;-67
2023/08/21 03:20:54;;;;;;;;;;;23.80;60.60;;;;;;10164128;28;93169;-68
2023/08/21 03:25:56;;;;;;;;;;;23.80;60.60;;;;;;10141541;28;93354;-67
2023/08/21 03:30:57;;;;;;;;;;;23.80;60.60;;;;;;10158877;28;93994;-69
2023/08/21 03:35:59;;;;;;;;;;;23.80;60.60;;;;;;10157326;28;96062;-67
2023/08/21 03:41:01;;;;;;;;;;;23.80;60.50;;;;;;10163794;28;93557;-66
2023/08/21 03:46:03;;;;;;;;;;;23.80;60.50;;;;;;10157335;28;93463;-66
2023/08/21 03:51:05;;;;;;;;;;;23.80;60.50;;;;;;10155363;28;93629;-67
2023/08/21 03:56:07;;;;;;;;;;;23.80;60.40;;;;;;10147275;28;94446;-67
2023/08/21 04:01:10;;;;;;;;;;;23.80;60.40;;;;;;10157659;28;94092;-68
2023/08/21 04:06:11;;;;;;;;;;;23.90;60.40;;;;;;10156071;28;95003;-67
2023/08/21 04:11:13;;;;;;;;;;;23.80;60.30;;;;;;10171207;28;92709;-67
2023/08/21 04:16:17;;;;;;;;;;;23.80;60.30;;;;;;10145540;28;93458;-67
2023/08/21 04:21:19;;;;;;;;;;;23.80;60.20;;;;;;10155424;28;94059;-67
2023/08/21 04:26:25;;;;;;;;;;;23.80;60.20;;;;;;10150072;28;95891;-67
2023/08/21 04:31:28;;;;;;;;;;;23.80;60.20;;;;;;10170005;28;94123;-66
2023/08/21 04:36:29;;;;;;;;;;;23.80;60.10;;;;;;10155617;28;93490;-68
2023/08/21 04:41:31;;;;;;;;;;;23.80;60.10;;;;;;10153384;28;93394;-67
2023/08/21 04:51:53;;;;;;;;;;;23.80;60.00;;;;;;9521327;22;95255;-56
2023/08/21 04:56:54;;;;;;;;;;;23.80;60.10;;;;;;10180835;28;94260;-56
2023/08/21 05:01:57;;;;;;;;;;;23.80;60.10;;;;;;10198992;28;92751;-56
2023/08/21 05:06:59;;;;;;;;;;;23.80;60.10;;;;;;10217401;28;94656;-56
2023/08/21 05:12:00;;;;;;;;;;;23.80;60.20;;;;;;10210073;28;93468;-56
2023/08/21 05:17:03;;;;;;;;;;;23.80;60.10;;;;;;10223791;28;96817;-56
2023/08/21 05:22:04;;;;;;;;;;;23.80;61.20;;;;;;10221661;28;93609;-56
2023/08/21 05:27:06;;;;;;;;;;;23.80;61.40;;;;;;10194664;28;94487;-57
2023/08/21 05:32:08;;;;;;;;;;;23.80;61.90;;;;;;10223556;28;93748;-56
2023/08/21 05:37:10;;;;;;;;;;;23.80;61.80;;;;;;10205240;28;93755;-56
2023/08/21 05:42:12;;;;;;;;;;;23.80;61.60;;;;;;10212029;28;93898;-56
2023/08/21 05:47:13;;;;;;;;;;;23.80;61.60;;;;;;10197598;28;93838;-56
2023/08/21 05:52:16;;;;;;;;;;;23.80;61.50;;;;;;10213444;28;93466;-57
2023/08/21 05:57:18;;;;;;;;;;;23.80;61.50;;;;;;10208198;28;93486;-56
2023/08/21 06:02:20;;;;;;;;;;;23.80;61.50;;;;;;10223977;28;93600;-55
2023/08/21 06:07:22;;;;;;;;;;;23.80;61.50;;;;;;10193677;28;96830;-56
2023/08/21 06:12:23;;;;;;;;;;;23.80;61.50;;;;;;10207686;28;93476;-56
2023/08/21 06:17:27;;;;;;;;;;;23.80;61.50;;;;;;10234158;28;95443;-56
2023/08/21 06:22:28;;;;;;;;;;;23.80;61.60;;;;;;10209229;28;94562;-56
2023/08/21 06:27:30;;;;;;;;;;;23.80;61.60;;;;;;10210852;28;94525;-57
2023/08/21 06:32:42;;;;;;;;;;;23.80;61.60;;;;;;10225794;28;94502;-56
2023/08/21 06:37:44;;;;;;;;;;;23.80;61.70;;;;;;10231986;28;93775;-56
2023/08/21 06:42:49;;;;;;;;;;;23.80;61.70;;;;;;10194981;28;93446;-56
2023/08/21 06:47:51;;;;;;;;;;;23.80;61.80;;;;;;10209956;28;94721;-56
2023/08/21 06:52:53;;;;;;;;;;;23.80;61.80;;;;;;10209836;28;94398;-57
2023/08/21 06:57:54;;;;;;;;;;;23.80;61.80;;;;;;10208532;28;95923;-56
2023/08/21 07:02:56;;;;;;;;;;;23.80;61.90;;;;;;10216909;28;94604;-56
2023/08/21 07:07:58;;;;;;;;;;;23.80;62.00;;;;;;10210282;28;94201;-57
2023/08/21 07:13:00;;;;;;;;;;;23.80;62.10;;;;;;10232732;28;94671;-56
2023/08/21 07:18:02;;;;;;;;;;;23.80;61.90;;;;;;10212125;28;93460;-56
2023/08/21 07:23:04;;;;;;;;;;;23.80;61.90;;;;;;10218039;28;94736;-57
2023/08/21 07:28:06;;;;;;;;;;;23.80;61.90;;;;;;10222518;28;94062;-56
2023/08/21 07:33:08;;;;;;;;;;;23.80;61.80;;;;;;10218316;28;93736;-56
2023/08/21 07:38:10;;;;;;;;;;;23.80;62.80;;;;;;10219366;28;94166;-57
2023/08/21 07:43:12;;;;;;;;;;;23.80;61.80;;;;;;10202534;28;94448;-56
2023/08/21 07:48:13;;;;;;;;;;;23.80;61.80;;;;;;10215054;28;96175;-56
2023/08/21 07:53:16;;;;;;;;;;;23.80;61.90;;;;;;10206223;28;94042;-56
2023/08/21 07:58:18;;;;;;;;;;;23.80;61.80;;;;;;10202991;28;94439;-57
2023/08/21 08:03:19;;;;;;;;;;;23.80;61.80;;;;;;10220093;28;93881;-56
2023/08/21 08:08:21;;;;;;;;;;;23.80;61.90;;;;;;10208736;28;94106;-56
2023/08/21 08:13:23;;;;;;;;;;;23.80;61.90;;;;;;10213058;28;93898;-67
2023/08/21 08:18:25;;;;;;;;;;;23.80;62.00;;;;;;10213740;28;94554;-56
2023/08/21 08:23:27;;;;;;;;;;;23.80;62.00;;;;;;10220658;28;92743;-56
2023/08/21 08:28:29;;;;;;;;;;;23.80;62.10;;;;;;10222507;28;93474;-56
2023/08/21 08:33:30;;;;;;;;;;;23.80;62.10;;;;;;10226669;28;94360;-58
2023/08/21 08:38:32;;;;;;;;;;;23.70;62.00;;;;;;10211921;28;96210;-56
2023/08/21 08:43:36;;;;;;;;;;;23.80;62.10;;;;;;10211403;28;94542;-56
2023/08/21 08:48:38;;;;;;;;;;;23.70;62.20;;;;;;10209655;28;93312;-57
2023/08/21 08:53:42;;;;;;;;;;;23.70;62.20;;;;;;10214337;28;93891;-56
2023/08/21 08:58:44;;;;;;;;;;;23.60;62.20;;;;;;10218242;28;93667;-56
2023/08/21 09:03:46;;;;;;;;;;;23.70;62.30;;;;;;10216198;28;97618;-57
2023/08/21 09:08:54;;;;;;;;;;;23.70;62.40;;;;;;10208648;28;94399;-56
2023/08/21 09:13:56;;;;;;;;;;;23.70;63.40;;;;;;10199042;28;94285;-56
2023/08/21 09:18:58;;;;;;;;;;;23.60;62.40;;;;;;10210204;28;94407;-56
2023/08/21 09:24:02;;;;;;;;;;;23.70;62.40;;;;;;10216082;28;94685;-56
2023/08/21 09:29:05;;;;;;;;;;;23.70;62.50;;;;;;10200738;28;97044;-57
2023/08/21 09:34:06;;;;;;;;;;;23.70;62.50;;;;;;10207976;28;94590;-60
2023/08/21 09:39:15;;;;;;;;;;;23.70;62.50;;;;;;10205950;28;94482;-56
2023/08/21 09:44:18;;;;;;;;;;;23.70;62.50;;;;;;10209467;28;93498;-57
2023/08/21 09:49:20;;;;;;;;;;;23.80;62.40;;;;;;10220653;28;94448;-56
2023/08/21 09:54:22;;;;;;;;;;;23.80;62.20;;;;;;10201647;28;94495;-57
2023/08/21 09:59:24;;;;;;;;;;;23.90;62.10;;;;;;10222764;28;93514;-56
2023/08/21 10:04:30;;;;;;;;;;;24.00;61.90;;;;;;10226397;28;92748;-56
2023/08/21 10:09:32;;;;;;;;;;;24.10;61.70;;;;;;10210222;28;92922;-57
2023/08/21 10:14:35;;;;;;;;;;;24.20;61.50;;;;;;10222343;28;93963;-56
2023/08/21 10:19:38;;;;;;;;;;;24.30;61.30;;;;;;10220201;28;96770;-57
2023/08/21 10:24:39;;;;;;;;;;;24.40;61.20;;;;;;10235722;28;94764;-56
2023/08/21 10:29:46;;;;;;;;;;;24.40;60.90;;;;;;10235768;28;94804;-56
2023/08/21 10:34:51;;;;;;;;;;;24.50;60.90;;;;;;10195288;28;94385;-56
2023/08/21 10:39:56;;;;;;;;;;;24.50;60.70;;;;;;10196336;28;93455;-56
2023/08/21 10:45:09;;;;;;;;;;;24.50;60.60;;;;;;10227215;28;94514;-56
2023/08/21 10:50:11;;;;;;;;;;;24.60;60.60;;;;;;10202282;28;93399;-56
2023/08/21 10:55:14;;;;;;;;;;;24.60;60.60;;;;;;10210142;28;94149;-57
2023/08/21 11:00:20;;;;;;;;;;;24.60;60.50;;;;;;10210570;28;94763;-56
2023/08/21 11:05:22;;;;;;;;;;;24.60;60.50;;;;;;10225879;28;94521;-57
2023/08/21 11:10:24;;;;;;;;;;;24.60;60.40;;;;;;10200172;28;97081;-57
2023/08/21 11:15:27;;;;;;;;;;;24.60;60.50;;;;;;10207109;28;93638;-56
2023/08/21 11:20:33;;;;;;;;;;;24.60;60.60;;;;;;10231121;28;93560;-56
2023/08/21 11:25:39;;;;;;;;;;;24.60;60.60;;;;;;10201593;28;94481;-56
2023/08/21 11:30:43;;;;;;;;;;;24.60;60.60;;;;;;10201315;28;92819;-56
2023/08/21 11:35:46;;;;;;;;;;;24.60;60.70;;;;;;10228955;28;94087;-57
2023/08/21 11:40:55;;;;;;;;;;;24.50;60.80;;;;;;10194991;28;93570;-56
2023/08/21 11:45:56;;;;;;;;;;;24.60;60.80;;;;;;10232114;28;92817;-56
2023/08/21 11:51:00;;;;;;;;;;;24.60;60.80;;;;;;10205607;28;94168;-56
2023/08/21 11:56:03;;;;;;;;;;;24.50;60.80;;;;;;10210943;28;93458;-56
2023/08/21 12:01:06;;;;;;;;;;;24.50;60.70;;;;;;10205598;28;96064;-56
2023/08/21 12:06:09;;;;;;;;;;;24.60;60.70;;;;;;10215509;28;93482;-57
2023/08/21 12:11:11;;;;;;;;;;;24.50;60.70;;;;;;10227039;28;94882;-56
2023/08/21 12:16:13;;;;;;;;;;;24.50;60.70;;;;;;10222281;28;93438;-56
2023/08/21 12:21:16;;;;;;;;;;;24.60;60.80;;;;;;10218157;28;94293;-56
2023/08/21 12:26:21;;;;;;;;;;;24.60;60.80;;;;;;10181895;28;94465;-56
2023/08/21 12:31:24;;;;;;;;;;;24.60;60.70;;;;;;10219568;28;93870;-56
2023/08/21 12:36:26;;;;;;;;;;;24.60;60.60;;;;;;10213305;28;93218;-56
2023/08/21 12:41:28;;;;;;;;;;;24.60;60.60;;;;;;10219021;28;93660;-56
2023/08/21 12:46:30;;;;;;;;;;;24.60;60.60;;;;;;10205028;28;93847;-56
2023/08/21 12:51:32;;;;;;;;;;;24.60;60.60;;;;;;10198049;28;95976;-56
2023/08/21 12:56:34;;;;;;;;;;;24.60;61.70;;;;;;10220104;28;94191;-56
2023/08/21 13:01:37;;;;;;;;;;;24.60;60.60;;;;;;10209525;28;93624;-56
2023/08/21 13:06:39;;;;;;;;;;;24.60;60.50;;;;;;10210074;28;93652;-56
2023/08/21 13:11:41;;;;;;;;;;;24.60;60.60;;;;;;10211929;28;93974;-56
2023/08/21 13:16:43;;;;;;;;;;;24.60;60.60;;;;;;10215817;28;93567;-56
2023/08/21 13:21:46;;;;;;;;;;;24.60;60.60;;;;;;10219845;28;94246;-58
2023/08/21 13:26:48;;;;;;;;;;;24.60;60.60;;;;;;10204097;28;92496;-56
2023/08/21 13:31:50;;;;;;;;;;;24.60;60.80;;;;;;10212517;28;94193;-56
2023/08/21 13:36:52;;;;;;;;;;;24.60;60.80;;;;;;10217898;28;93799;-56
2023/08/21 13:41:54;;;;;;;;;;;24.60;60.70;;;;;;10205139;28;96805;-56
2023/08/21 13:46:56;;;;;;;;;;;24.60;60.80;;;;;;10225060;28;94399;-56
2023/08/21 13:51:57;;;;;;;;;;;24.60;60.70;;;;;;10232613;28;94102;-57
2023/08/21 13:56:59;;;;;;;;;;;24.60;60.70;;;;;;10224492;28;94628;-56
2023/08/21 14:02:01;;;;;;;;;;;24.60;60.60;;;;;;10220950;28;94400;-56
2023/08/21 14:07:04;;;;;;;;;;;24.60;60.70;;;;;;10217864;28;93894;-57
2023/08/21 14:12:06;;;;;;;;;;;24.60;60.70;;;;;;10238918;28;94458;-56
2023/08/21 14:17:09;;;;;;;;;;;24.60;60.80;;;;;;10227354;28;94052;-57
2023/08/21 14:22:10;;;;;;;;;;;24.60;60.80;;;;;;10238707;28;93496;-56
2023/08/21 14:27:12;;;;;;;;;;;24.60;60.80;;;;;;10220473;28;94530;-56
2023/08/21 14:32:14;;;;;;;;;;;24.60;60.70;;;;;;10231958;28;95786;-67
2023/08/21 14:37:17;;;;;;;;;;;24.60;60.80;;;;;;10220430;28;96477;-57
2023/08/21 14:42:19;;;;;;;;;;;24.60;60.80;;;;;;10213945;28;94507;-57
2023/08/21 14:47:20;;;;;;;;;;;24.60;60.80;;;;;;10212360;28;94465;-57
2023/08/21 14:52:22;;;;;;;;;;;24.60;60.80;;;;;;10226028;28;93651;-56
2023/08/21 14:57:24;;;;;;;;;;;24.60;60.90;;;;;;10202181;28;94711;-56
2023/08/21 15:02:26;;;;;;;;;;;24.60;60.80;;;;;;10219767;28;94326;-56
2023/08/21 15:07:28;;;;;;;;;;;24.60;60.80;;;;;;10216851;28;94042;-56
2023/08/21 15:12:30;;;;;;;;;;;24.60;60.80;;;;;;10208493;28;94500;-57
2023/08/21 15:17:32;;;;;;;;;;;24.60;60.80;;;;;;10214918;28;94725;-56
2023/08/21 15:22:34;;;;;;;;;;;24.60;60.80;;;;;;10222316;28;96162;-56
2023/08/21 15:27:36;;;;;;;;;;;24.60;60.90;;;;;;10222622;28;94728;-56
2023/08/21 15:32:38;;;;;;;;;;;24.50;60.70;;;;;;10226927;28;94076;-56
2023/08/21 15:37:41;;;;;;;;;;;24.50;60.70;;;;;;10205164;28;94446;-55
2023/08/21 15:42:43;;;;;;;;;;;24.60;60.80;;;;;;10221738;28;93273;-56
2023/08/21 15:47:48;;;;;;;;;;;24.50;60.70;;;;;;10228138;28;93302;-55
2023/08/21 15:52:52;;;;;;;;;;;24.60;60.80;;;;;;10208691;28;94654;-55
2023/08/21 15:57:54;;;;;;;;;;;24.60;60.80;;;;;;10227279;28;93137;-57
2023/08/21 16:02:56;;;;;;;;;;;24.60;60.70;;;;;;10232774;28;93500;-55
2023/08/21 16:07:57;;;;;;;;;;;24.60;60.70;;;;;;10212048;28;93604;-55
2023/08/21 16:13:00;;;;;;;;;;;24.60;60.40;;;;;;10197100;28;96021;-54
2023/08/21 16:18:01;;;;;;;;;;;24.60;60.60;;;;;;10220870;28;93448;-55
2023/08/21 16:23:04;;;;;;;;;;;24.70;62.50;;;;;;10233706;28;93705;-55
2023/08/21 16:28:09;;;;;;;;;;;24.90;62.50;;;;;;10234524;28;93365;-55
2023/08/21 16:33:10;;;;;;;;;;;25.10;62.30;;;;;;10224794;28;94468;-55
2023/08/21 16:38:12;;;;;;;;;;;25.20;61.70;;;;;;10211060;28;95078;-54
2023/08/21 16:43:17;;;;;;;;;;;25.20;61.50;;;;;;10241022;28;93433;-56
2023/08/21 16:48:19;;;;;;;;;;;25.20;61.40;;;;;;10214887;28;92781;-54
2023/08/21 16:53:21;;;;;;;;;;;25.20;61.20;;;;;;10188205;28;94558;-55
2023/08/21 16:58:25;;;;;;;;;;;25.20;61.20;;;;;;10214700;28;93793;-69
2023/08/21 17:03:26;;;;;;;;;;;25.20;61.20;;;;;;10207512;28;96219;-56
2023/08/21 17:08:28;;;;;;;;;;;25.20;61.20;;;;;;10206555;28;93767;-56
2023/08/21 17:13:30;;;;;;;;;;;25.20;61.30;;;;;;10220639;28;94367;-56
2023/08/21 17:18:32;;;;;;;;;;;25.10;61.20;;;;;;10214713;28;94377;-55
2023/08/21 17:23:35;;;;;;;;;;;25.10;61.20;;;;;;10217629;28;94594;-53
2023/08/21 17:28:36;;;;;;;;;;;25.10;62.50;;;;;;10211216;28;95107;-55
2023/08/21 17:33:38;;;;;;;;;;;25.00;61.70;;;;;;10232177;28;93200;-62
2023/08/21 17:38:40;;;;;;;;;;;25.10;62.60;;;;;;10228576;28;93318;-55
2023/08/21 17:43:43;;;;;;;;;;;25.10;61.90;;;;;;10230696;28;94456;-55
2023/08/21 17:48:46;;;;;;;;;;;25.10;61.90;;;;;;10210132;28;95856;-55
2023/08/21 17:53:48;;;;;;;;;;;25.10;61.90;;;;;;10217770;28;96841;-56
2023/08/21 17:58:50;;;;;;;;;;;25.10;61.80;;;;;;10244570;28;93439;-55
2023/08/21 18:03:51;;;;;;;;;;;25.10;61.70;;;;;;10210159;28;93475;-56
2023/08/21 18:08:53;;;;;;;;;;;25.10;61.70;;;;;;10229717;28;94391;-56
2023/08/21 18:13:55;;;;;;;;;;;25.00;61.70;;;;;;10222440;28;93436;-55
2023/08/21 18:18:57;;;;;;;;;;;25.00;61.70;;;;;;10225042;28;94379;-55
2023/08/21 18:23:59;;;;;;;;;;;25.00;61.60;;;;;;10220587;28;93986;-55
2023/08/21 18:29:02;;;;;;;;;;;25.00;61.00;;;;;;10229187;28;92742;-56
2023/08/21 18:34:05;;;;;;;;;;;24.80;60.40;;;;;;10225079;28;94069;-55
2023/08/21 18:39:07;;;;;;;;;;;24.80;60.30;;;;;;10214806;28;94855;-58
2023/08/21 18:44:09;;;;;;;;;;;24.80;61.30;;;;;;10210925;28;95799;-58
2023/08/21 18:49:11;;;;;;;;;;;24.70;60.70;;;;;;10225434;28;94494;-56
2023/08/21 18:54:13;;;;;;;;;;;24.70;60.90;;;;;;10220073;28;93410;-56
2023/08/21 18:59:16;;;;;;;;;;;24.60;61.00;;;;;;10229930;28;93341;-57
2023/08/21 19:04:18;;;;;;;;;;;24.60;61.00;;;;;;10196816;28;94319;-57
2023/08/21 19:09:20;;;;;;;;;;;24.60;61.20;;;;;;10217604;28;93394;-56
2023/08/21 19:14:22;;;;;;;;;;;24.60;61.30;;;;;;10240868;28;94412;-56
2023/08/21 19:19:23;;;;;;;;;;;24.60;61.50;;;;;;10231968;28;92899;-56
2023/08/21 19:24:25;;;;;;;;;;;24.60;61.50;;;;;;10219792;28;94684;-54
2023/08/21 19:29:27;;;;;;;;;;;24.60;61.60;;;;;;10231809;28;94803;-56
2023/08/21 19:34:30;;;;;;;;;;;24.60;61.60;;;;;;10228750;28;96814;-67
2023/08/21 19:39:34;;;;;;;;;;;24.70;61.70;;;;;;10224615;28;93803;-56
2023/08/21 19:44:37;;;;;;;;;;;24.70;61.80;;;;;;10229171;28;93824;-56
2023/08/21 19:49:39;;;;;;;;;;;24.70;61.80;;;;;;10197258;28;93006;-56
2023/08/21 19:54:41;;;;;;;;;;;24.70;61.90;;;;;;10224823;28;93523;-56
2023/08/21 19:59:43;;;;;;;;;;;24.70;62.00;;;;;;10224981;28;93436;-56
2023/08/21 20:04:45;;;;;;;;;;;24.70;62.00;;;;;;10235889;28;94123;-56
2023/08/21 20:09:47;;;;;;;;;;;24.70;62.00;;;;;;10214143;28;92575;-56
2023/08/21 20:14:51;;;;;;;;;;;24.70;62.10;;;;;;10219391;28;94169;-56
2023/08/21 20:19:53;;;;;;;;;;;24.60;62.10;;;;;;10236917;28;93700;-56
2023/08/21 20:24:56;;;;;;;;;;;24.70;62.20;;;;;;10202972;28;95925;-57
2023/08/21 20:29:58;;;;;;;;;;;24.70;62.20;;;;;;10221059;28;94761;-57
2023/08/21 20:34:59;;;;;;;;;;;24.60;62.20;;;;;;10203942;28;94431;-57
2023/08/21 20:40:03;;;;;;;;;;;24.60;62.20;;;;;;10202644;28;93239;-56
2023/08/21 20:45:05;;;;;;;;;;;24.60;62.30;;;;;;10214839;28;93582;-57
2023/08/21 20:50:07;;;;;;;;;;;24.60;62.30;;;;;;10225356;28;94483;-57
2023/08/21 20:55:09;;;;;;;;;;;24.60;62.40;;;;;;10188275;28;94097;-57
2023/08/21 21:00:15;;;;;;;;;;;24.60;62.30;;;;;;10226916;28;92667;-57
2023/08/21 21:05:17;;;;;;;;;;;24.60;62.40;;;;;;10216290;28;93786;-56
2023/08/21 21:10:19;;;;;;;;;;;24.60;62.40;;;;;;10220939;28;94681;-57
2023/08/21 21:15:21;;;;;;;;;;;24.50;62.40;;;;;;10219078;28;95915;-56
2023/08/21 21:20:24;;;;;;;;;;;24.50;62.40;;;;;;10209629;28;93781;-57
2023/08/21 21:25:25;;;;;;;;;;;24.50;62.30;;;;;;10229867;28;94451;-57
2023/08/21 21:30:27;;;;;;;;;;;24.50;62.30;;;;;;10200855;28;93499;-57
2023/08/21 21:35:30;;;;;;;;;;;24.50;62.30;;;;;;10201263;28;94476;-56
2023/08/21 21:40:31;;;;;;;;;;;24.50;62.30;;;;;;10190463;28;94445;-56
2023/08/21 21:45:34;;;;;;;;;;;24.50;62.30;;;;;;10211804;28;94340;-57
2023/08/21 21:50:36;;;;;;;;;;;24.50;62.30;;;;;;10191405;28;93121;-58
2023/08/21 21:55:38;;;;;;;;;;;24.50;62.30;;;;;;10220889;28;93613;-56
2023/08/21 22:00:40;;;;;;;;;;;24.50;62.40;;;;;;10234354;28;94882;-57
2023/08/21 22:05:42;;;;;;;;;;;24.50;62.40;;;;;;10224389;28;95909;-57
2023/08/21 22:10:44;;;;;;;;;;;24.40;62.30;;;;;;10217422;28;94461;-57
2023/08/21 22:15:46;;;;;;;;;;;24.40;62.30;;;;;;10232841;28;94917;-57
2023/08/21 22:20:48;;;;;;;;;;;24.40;62.30;;;;;;10221757;28;94486;-63
2023/08/21 22:25:50;;;;;;;;;;;24.40;62.20;;;;;;10237971;28;93354;-57
2023/08/21 22:30:52;;;;;;;;;;;24.40;62.20;;;;;;10224003;28;93442;-56
2023/08/21 22:35:54;;;;;;;;;;;24.40;62.30;;;;;;10202068;28;94423;-56
2023/08/21 22:40:56;;;;;;;;;;;24.40;62.30;;;;;;10227093;28;93914;-57
2023/08/21 22:45:58;;;;;;;;;;;24.40;62.20;;;;;;10203264;28;94402;-57
2023/08/21 22:51:04;;;;;;;;;;;24.40;62.20;;;;;;10215743;28;94556;-57
2023/08/21 22:56:06;;;;;;;;;;;24.40;62.30;;;;;;10213311;28;96019;-57
2023/08/21 23:01:08;;;;;;;;;;;24.40;62.20;;;;;;10223879;28;93346;-57
2023/08/21 23:06:10;;;;;;;;;;;24.40;62.20;;;;;;10212607;28;93265;-57
2023/08/21 23:11:13;;;;;;;;;;;24.40;62.20;;;;;;10217529;28;93722;-56
2023/08/21 23:16:15;;;;;;;;;;;24.40;62.20;;;;;;10225936;28;93285;-57
2023/08/21 23:21:17;;;;;;;;;;;24.40;62.20;;;;;;10199844;28;94453;-57
2023/08/21 23:26:19;;;;;;;;;;;24.40;62.20;;;;;;10220571;28;93402;-57
2023/08/21 23:31:21;;;;;;;;;;;24.40;62.20;;;;;;10237741;28;92730;-57
2023/08/21 23:36:23;;;;;;;;;;;24.40;62.10;;;;;;10225395;28;94465;-57
2023/08/21 23:41:25;;;;;;;;;;;24.40;62.00;;;;;;10222091;28;93897;-58
2023/08/21 23:46:27;;;;;;;;;;;24.40;62.00;;;;;;10230981;28;96802;-57
2023/08/21 23:51:29;;;;;;;;;;;24.40;61.90;;;;;;10225939;28;94427;-59
2023/08/21 23:56:31;;;;;;;;;;;24.40;61.90;;;;;;10231027;28;93833;-55
